Time;durP1;ratioP1;P1;durP2;ratioP2;P2;SDS_P1;SDS_P2;PMS_P1;PMS_P2;Temp;Humidity;BMP_temperature;BMP_pressure;BME280_temperature;BME280_humidity;BME280_pressure;Samples;Min_cycle;Max_cycle;Signal;HPM_P1;HPM_P2
2022/01/02 00:00:16;;;;;;;17.63;12.05;;;;;;;9.62;72.82;95972.03;5008433;28;20080;-61
2022/01/02 00:02:48;;;;;;;16.48;12.82;;;;;;;9.61;73.22;95970.41;5007357;28;20135;-62
2022/01/02 00:05:16;;;;;;;14.55;11.27;;;;;;;9.57;73.19;95974.00;5008058;28;20025;-62
2022/01/02 00:07:56;;;;;;;16.45;12.98;;;;;;;9.53;73.32;95968.16;5005764;28;20568;-63
2022/01/02 00:10:24;;;;;;;15.32;10.93;;;;;;;9.50;73.73;95973.44;5008147;28;20052;-60
2022/01/02 00:12:56;;;;;;;17.10;12.73;;;;;;;9.57;73.46;95980.00;5007919;28;20026;-64
2022/01/02 00:15:23;;;;;;;16.80;11.88;;;;;;;9.56;73.31;95980.88;5007272;28;20026;-65
2022/01/02 00:17:51;;;;;;;17.30;12.90;;;;;;;9.60;73.76;95980.75;5008503;28;20386;-61
2022/01/02 00:20:20;;;;;;;15.77;11.80;;;;;;;9.64;72.93;95980.56;5008085;28;20547;-66
2022/01/02 00:22:49;;;;;;;15.52;12.15;;;;;;;8.86;73.00;95874.09;5022677;28;20112;-66
2022/01/02 00:25:26;;;;;;;14.93;10.77;;;;;;;9.50;73.53;95957.16;5007929;28;20030;-63
2022/01/02 00:27:52;;;;;;;15.23;11.45;;;;;;;9.69;73.22;95986.34;5007314;28;20132;-60
2022/01/02 00:30:18;;;;;;;14.85;11.18;;;;;;;9.71;73.42;95981.13;5008270;28;20032;-60
2022/01/02 00:32:44;;;;;;;13.98;11.00;;;;;;;9.72;72.63;95978.47;5008040;28;20026;-62
2022/01/02 00:35:10;;;;;;;14.68;10.77;;;;;;;9.68;73.55;95982.09;5007793;28;20286;-63
2022/01/02 00:37:35;;;;;;;12.63;11.00;;;;;;;9.70;72.84;95985.41;5007790;28;20026;-64
2022/01/02 00:40:03;;;;;;;14.60;10.55;;;;;;;9.68;72.88;95976.09;5007212;28;20025;-63
2022/01/02 00:42:31;;;;;;;14.32;11.32;;;;;;;9.51;73.27;95963.94;5008220;28;20455;-61
2022/01/02 00:45:16;;;;;;;15.57;12.23;;;;;;;9.66;73.95;95993.38;5007736;28;20060;-66
2022/01/02 00:47:59;;;;;;;15.93;12.05;;;;;;;9.65;73.83;95981.38;5007968;28;20109;-59
2022/01/02 00:50:36;;;;;;;14.52;11.70;;;;;;;9.66;73.26;95983.06;5007459;28;20026;-62
2022/01/02 00:53:05;;;;;;;14.32;11.98;;;;;;;9.69;73.63;95970.88;5008048;28;20164;-60
2022/01/02 00:55:34;;;;;;;13.75;11.85;;;;;;;9.78;72.83;95981.69;5007967;28;20060;-62
2022/01/02 00:58:01;;;;;;;15.43;12.38;;;;;;;9.75;72.75;95974.91;5007872;28;20049;-64
2022/01/02 01:00:28;;;;;;;16.35;11.75;;;;;;;9.74;72.79;95981.00;5006233;28;20034;-63
2022/01/02 01:02:59;;;;;;;15.63;12.77;;;;;;;9.47;72.72;95931.53;5007124;28;20026;-62
2022/01/02 01:05:30;;;;;;;13.63;11.02;;;;;;;9.76;73.10;95966.31;5011158;28;20477;-62
2022/01/02 01:08:00;;;;;;;14.02;11.23;;;;;;;9.82;72.83;95980.63;5011596;28;20045;-68
2022/01/02 01:10:29;;;;;;;14.95;11.85;;;;;;;9.79;72.55;95979.03;5011532;28;20420;-66
2022/01/02 01:12:57;;;;;;;12.25;9.10;;;;;;;9.75;73.01;95978.31;5011260;28;20033;-64
2022/01/02 01:15:24;;;;;;;13.18;11.07;;;;;;;9.71;72.99;95978.56;5010658;28;20108;-65
2022/01/02 01:17:55;;;;;;;14.48;10.50;;;;;;;9.63;72.54;95955.69;5010099;28;20034;-64
2022/01/02 01:20:23;;;;;;;14.27;10.90;;;;;;;9.57;72.35;95968.84;5011022;28;20477;-61
2022/01/02 01:22:49;;;;;;;13.52;9.57;;;;;;;9.71;72.73;95986.28;5011733;28;20034;-61
2022/01/02 01:25:17;;;;;;;17.20;11.85;;;;;;;9.49;72.88;95935.69;5011023;28;20022;-61
2022/01/02 01:27:44;;;;;;;13.38;10.30;;;;;;;9.46;71.91;95941.00;5010556;28;20025;-61
2022/01/02 01:30:10;;;;;;;13.90;9.35;;;;;;;9.43;72.41;95940.28;5011093;28;20560;-60
2022/01/02 01:32:36;;;;;;;14.13;10.77;;;;;;;9.64;72.95;95983.13;5010661;28;20038;-62
2022/01/02 01:35:02;;;;;;;15.30;11.23;;;;;;;9.42;72.60;95946.34;5011336;28;20030;-62
2022/01/02 01:37:29;;;;;;;13.18;10.88;;;;;;;9.61;72.52;95972.97;5010764;28;20026;-63
2022/01/02 01:39:54;;;;;;;13.40;10.02;;;;;;;9.63;72.95;95980.63;5010484;28;20038;-62
2022/01/02 01:42:31;;;;;;;16.02;10.60;;;;;;;9.65;72.06;95983.97;5011013;28;20400;-62
2022/01/02 01:45:28;;;;;;;13.23;10.63;;;;;;;9.60;72.54;95993.63;5010431;28;20080;-63
2022/01/02 01:47:49;;;;;;;12.13;10.00;;;;;;;9.57;72.92;95981.72;5010507;28;20034;-63
2022/01/02 01:50:16;;;;;;;13.15;10.13;;;;;;;9.56;72.35;95978.31;5010113;28;20503;-61
2022/01/02 01:52:42;;;;;;;14.45;10.90;;;;;;;9.63;71.79;95988.34;5010951;28;20030;-61
2022/01/02 01:55:09;;;;;;;13.63;10.57;;;;;;;9.64;72.15;95970.25;5010731;28;20088;-61
2022/01/02 01:57:35;;;;;;;13.02;9.85;;;;;;;9.33;71.76;95920.09;5010551;28;20465;-61
2022/01/02 02:00:21;;;;;;;14.00;9.75;;;;;;;9.72;71.91;95988.78;5010420;28;20081;-65
2022/01/02 02:02:47;;;;;;;11.90;9.68;;;;;;;9.76;71.54;95979.19;5010211;28;20061;-62
2022/01/02 02:05:13;;;;;;;14.98;10.95;;;;;;;9.69;71.33;95970.88;5010559;28;20088;-62
2022/01/02 02:07:40;;;;;;;12.02;9.57;;;;;;;9.72;71.06;95957.88;5010508;28;20443;-60
2022/01/02 02:10:14;;;;;;;16.05;11.73;;;;;;;9.80;71.34;95978.13;5010318;28;20349;-62
2022/01/02 02:12:42;;;;;;;14.23;11.27;;;;;;;9.80;71.13;95967.81;5010128;28;20564;-62
2022/01/02 02:15:10;;;;;;;15.15;11.38;;;;;;;9.76;70.63;95950.84;5009043;28;20030;-61
2022/01/02 02:17:37;;;;;;;12.80;9.55;;;;;;;9.71;70.41;95924.47;5010801;28;20483;-61
2022/01/02 02:20:21;;;;;;;14.32;10.52;;;;;;;9.91;70.91;95959.63;5009847;28;20030;-61
2022/01/02 02:22:52;;;;;;;14.20;10.48;;;;;;;9.97;70.49;95976.53;5009918;28;20014;-63
2022/01/02 02:25:20;;;;;;;11.27;9.13;;;;;;;9.91;70.99;95969.94;5010033;28;20389;-60
2022/01/02 02:28:13;;;;;;;12.43;9.35;;;;;;;9.84;70.76;95955.63;5009603;28;20894;-61
2022/01/02 02:30:41;;;;;;;12.27;9.23;;;;;;;9.90;70.71;95969.09;5026563;28;20033;-71
2022/01/02 02:33:08;;;;;;;12.80;9.27;;;;;;;9.88;70.99;95970.06;5027216;28;20049;-62
2022/01/02 02:35:36;;;;;;;12.45;9.65;;;;;;;9.56;70.88;95933.72;5026615;28;20069;-61
2022/01/02 02:38:04;;;;;;;15.02;10.88;;;;;;;9.90;71.09;95966.53;5026561;28;20041;-67
2022/01/02 02:40:30;;;;;;;11.50;9.30;;;;;;;9.92;70.47;95972.44;5026792;28;20037;-61
2022/01/02 02:43:05;;;;;;;12.52;10.10;;;;;;;9.90;70.88;95981.13;5026629;28;20065;-62
2022/01/02 02:51:12;;;;;;;13.15;10.10;;;;;;;9.58;71.43;95942.19;5026381;28;20028;-62
2022/01/02 02:53:41;;;;;;;12.88;10.38;;;;;;;9.72;71.68;95957.88;5026453;28;20128;-63
2022/01/02 02:56:24;;;;;;;14.30;10.07;;;;;;;9.81;71.04;95977.22;5026727;28;20033;-63
2022/01/02 02:58:55;;;;;;;12.68;10.55;;;;;;;9.79;71.84;95983.34;5026378;28;20049;-65
2022/01/02 03:01:22;;;;;;;16.02;9.68;;;;;;;9.79;71.14;95991.06;5026048;28;20052;-60
2022/01/02 03:03:48;;;;;;;12.60;9.93;;;;;;;9.85;71.23;95989.06;5025923;28;20041;-64
2022/01/02 03:06:15;;;;;;;13.77;9.40;;;;;;;9.83;71.61;95987.47;5026319;28;20041;-62
2022/01/02 03:08:42;;;;;;;12.55;9.65;;;;;;;9.75;72.06;95980.91;5010285;28;20125;-67
2022/01/02 03:11:13;;;;;;;13.75;10.73;;;;;;;9.75;71.67;95983.47;5009060;28;20038;-62
2022/01/02 03:13:39;;;;;;;13.63;9.63;;;;;;;9.81;71.69;95997.84;5009229;28;20036;-63
2022/01/02 03:16:04;;;;;;;12.82;10.05;;;;;;;9.74;71.50;95991.28;5008840;28;20858;-61
2022/01/02 03:18:30;;;;;;;12.95;10.00;;;;;;;9.73;71.49;95995.59;5008940;28;20122;-59
2022/01/02 03:20:55;;;;;;;11.50;9.32;;;;;;;9.86;71.63;95992.50;5009355;28;20022;-64
2022/01/02 03:23:21;;;;;;;12.88;10.00;;;;;;;9.83;71.04;95993.44;5008972;28;20049;-66
2022/01/02 03:25:46;;;;;;;11.55;9.00;;;;;;;9.84;71.12;96002.84;5008481;28;20052;-63
2022/01/02 03:28:12;;;;;;;13.45;10.10;;;;;;;9.51;71.38;95948.50;5007380;28;20444;-60
2022/01/02 03:30:38;;;;;;;10.10;8.95;;;;;;;9.78;71.32;96003.13;5008870;28;20048;-67
2022/01/02 03:33:03;;;;;;;12.13;8.15;;;;;;;9.57;71.55;95971.41;5008839;28;20030;-68
2022/01/02 03:35:29;;;;;;;13.35;9.80;;;;;;;9.57;71.95;95974.00;5009147;28;20032;-63
2022/01/02 03:37:55;;;;;;;12.10;8.85;;;;;;;9.73;71.97;95994.75;5008569;28;20454;-60
2022/01/02 03:40:20;;;;;;;11.02;8.75;;;;;;;9.68;72.33;96001.84;5008041;28;20417;-61
2022/01/02 03:42:46;;;;;;;13.13;9.50;;;;;;;9.64;71.98;96000.31;5008453;28;20036;-61
2022/01/02 03:45:11;;;;;;;11.35;9.40;;;;;;;9.70;72.20;96008.59;5008854;28;20120;-61
2022/01/02 03:47:37;;;;;;;12.18;9.38;;;;;;;9.69;71.86;96004.38;5008718;28;20069;-63
2022/01/02 03:50:04;;;;;;;10.40;7.82;;;;;;;9.35;72.47;95956.91;5008695;28;20130;-60
2022/01/02 03:52:30;;;;;;;10.85;9.18;;;;;;;9.53;72.05;95986.16;5006940;28;20018;-61
2022/01/02 03:54:56;;;;;;;12.50;8.82;;;;;;;9.65;72.03;95999.41;5008202;28;20044;-61
2022/01/02 03:57:22;;;;;;;9.73;8.13;;;;;;;9.61;71.48;95991.00;5008169;28;20042;-60
2022/01/02 03:59:47;;;;;;;12.77;9.65;;;;;;;9.61;72.07;95991.00;5008175;28;20552;-60
2022/01/02 04:02:13;;;;;;;10.82;8.75;;;;;;;9.56;72.49;95998.09;5007077;28;20026;-63
2022/01/02 04:04:38;;;;;;;10.75;8.23;;;;;;;9.60;71.73;96003.94;5008371;28;20042;-67
2022/01/02 04:07:04;;;;;;;11.68;9.10;;;;;;;9.57;72.29;96004.88;5008122;28;20069;-61
2022/01/02 04:09:30;;;;;;;13.13;8.95;;;;;;;9.55;71.64;96001.56;5008134;28;20040;-62
2022/01/02 04:11:56;;;;;;;10.93;8.90;;;;;;;9.50;72.31;96008.63;5008305;28;20022;-63
2022/01/02 04:14:21;;;;;;;13.00;10.00;;;;;;;9.31;72.66;95985.41;5007611;28;20068;-69
2022/01/02 04:16:46;;;;;;;12.82;8.95;;;;;;;9.38;72.38;96005.69;5008355;28;20018;-62
2022/01/02 04:19:12;;;;;;;10.65;9.05;;;;;;;9.44;72.58;96029.50;5008523;28;20026;-62
2022/01/02 04:21:38;;;;;;;11.27;8.35;;;;;;;9.42;72.80;96029.56;5008211;28;20044;-67
2022/01/02 04:24:03;;;;;;;13.32;9.90;;;;;;;9.43;73.40;96028.66;5008045;28;20026;-69
2022/01/02 04:26:30;;;;;;;11.55;8.95;;;;;;;9.43;73.00;96023.53;5005823;28;20493;-68
2022/01/02 04:28:55;;;;;;;13.10;9.02;;;;;;;9.38;73.73;96031.44;5008654;28;20045;-70
2022/01/02 04:31:21;;;;;;;12.13;9.50;;;;;;;9.36;73.60;96038.38;5008140;28;20026;-63
2022/01/02 04:33:46;;;;;;;12.07;9.07;;;;;;;9.37;73.27;96039.22;5008378;28;20030;-68
2022/01/02 04:36:12;;;;;;;12.38;9.70;;;;;;;9.19;74.26;96005.59;5007755;28;20550;-62
2022/01/02 04:38:38;;;;;;;12.20;9.70;;;;;;;9.33;73.69;96033.38;5008726;28;20026;-62
2022/01/02 04:41:04;;;;;;;11.73;9.05;;;;;;;8.96;74.29;95973.13;5011957;28;20034;-61
2022/01/02 04:43:29;;;;;;;12.90;9.23;;;;;;;9.33;73.54;96027.34;5012131;28;20034;-61
2022/01/02 04:45:56;;;;;;;13.60;9.23;;;;;;;9.32;73.72;96036.00;5011621;28;20476;-61
2022/01/02 04:48:22;;;;;;;11.20;9.45;;;;;;;9.20;74.40;96021.91;5011882;28;20033;-65
2022/01/02 04:50:48;;;;;;;15.80;10.35;;;;;;;9.26;73.77;96037.06;5011370;28;20033;-61
2022/01/02 04:53:13;;;;;;;11.75;9.20;;;;;;;9.18;73.92;96024.53;5011713;28;20080;-67
2022/01/02 04:55:39;;;;;;;12.20;10.05;;;;;;;9.05;74.57;96022.53;5011587;28;20096;-68
2022/01/02 04:58:05;;;;;;;14.02;10.40;;;;;;;9.16;74.11;96038.38;5011717;28;20054;-66
2022/01/02 05:00:30;;;;;;;12.18;8.30;;;;;;;9.12;74.35;96034.25;5011505;28;20077;-66
2022/01/02 05:02:56;;;;;;;12.80;10.18;;;;;;;9.13;75.06;96036.78;5011872;28;20314;-65
2022/01/02 05:05:21;;;;;;;11.85;9.85;;;;;;;9.05;74.25;96030.25;5011794;28;20505;-63
2022/01/02 05:07:47;;;;;;;14.88;10.57;;;;;;;9.12;74.39;96035.09;5012265;28;20079;-63
2022/01/02 05:10:13;;;;;;;11.68;9.27;;;;;;;8.97;74.49;96021.13;5012064;28;20025;-61
2022/01/02 05:12:38;;;;;;;14.48;10.43;;;;;;;9.09;74.91;96039.53;5011753;28;20033;-62
2022/01/02 05:15:05;;;;;;;13.13;10.57;;;;;;;9.01;74.66;96029.53;5011178;28;20416;-65
2022/01/02 05:17:30;;;;;;;12.15;10.40;;;;;;;9.09;75.02;96036.94;5011612;28;20038;-60
2022/01/02 05:19:56;;;;;;;12.15;9.30;;;;;;;8.54;75.00;95953.38;5011934;28;20028;-67
2022/01/02 05:22:21;;;;;;;13.77;10.10;;;;;;;8.71;74.73;95983.59;5011968;28;20029;-61
2022/01/02 05:24:47;;;;;;;15.13;11.38;;;;;;;9.02;75.29;96042.34;5012051;28;20033;-62
2022/01/02 05:27:13;;;;;;;16.60;11.05;;;;;;;9.10;74.78;96042.03;5011350;28;20053;-60
2022/01/02 05:29:38;;;;;;;13.15;10.70;;;;;;;9.14;74.92;96041.00;5011660;28;20388;-62
2022/01/02 05:32:04;;;;;;;13.05;9.73;;;;;;;8.87;74.82;95998.38;5011388;28;20052;-65
2022/01/02 05:34:29;;;;;;;12.75;10.65;;;;;;;9.15;74.92;96050.41;5011248;28;20424;-63
2022/01/02 05:36:55;;;;;;;15.52;11.45;;;;;;;9.15;74.02;96049.53;5011326;28;20072;-63
2022/01/02 05:39:21;;;;;;;12.32;10.05;;;;;;;8.91;74.80;96005.09;5011239;28;20026;-62
2022/01/02 05:41:48;;;;;;;13.45;10.52;;;;;;;9.18;74.06;96046.84;5011346;28;20542;-64
2022/01/02 05:44:14;;;;;;;15.15;10.38;;;;;;;9.18;74.63;96049.41;5011454;28;20421;-66
2022/01/02 05:46:41;;;;;;;12.20;9.35;;;;;;;9.26;74.08;96051.69;5011176;28;20551;-65
2022/01/02 05:49:07;;;;;;;13.15;9.82;;;;;;;9.29;74.02;96054.13;5011402;28;20022;-60
2022/01/02 05:51:33;;;;;;;12.65;10.25;;;;;;;9.15;74.06;96026.38;5009854;28;20038;-64
2022/01/02 05:53:58;;;;;;;12.63;9.75;;;;;;;9.37;73.31;96055.50;5011246;28;20417;-62
2022/01/02 05:56:24;;;;;;;12.55;10.00;;;;;;;9.36;73.13;96048.69;5011055;28;20511;-62
2022/01/02 05:58:49;;;;;;;10.90;8.80;;;;;;;9.46;73.32;96056.00;5011164;28;20049;-60
2022/01/02 06:01:15;;;;;;;9.93;7.90;;;;;;;9.35;73.06;96035.88;5010661;28;20037;-61
2022/01/02 06:03:40;;;;;;;10.80;8.65;;;;;;;9.43;73.45;96058.69;5010271;28;20100;-61
2022/01/02 06:06:06;;;;;;;11.32;8.40;;;;;;;9.26;73.07;96031.94;5010965;28;20038;-61
2022/01/02 06:08:31;;;;;;;12.68;9.38;;;;;;;9.35;73.02;96053.91;5042384;28;20045;-62
2022/01/02 06:10:56;;;;;;;10.50;7.80;;;;;;;9.37;73.85;96063.22;5010952;28;20034;-66
2022/01/02 06:13:22;;;;;;;13.30;8.93;;;;;;;9.24;72.99;96044.03;5010600;28;20026;-67
2022/01/02 06:15:48;;;;;;;10.10;8.45;;;;;;;9.38;73.77;96069.22;5010315;28;20057;-64
2022/01/02 06:18:14;;;;;;;11.57;9.00;;;;;;;9.36;73.46;96063.28;5010574;28;20032;-67
2022/01/02 06:20:39;;;;;;;13.68;9.68;;;;;;;9.43;73.32;96069.00;5010795;28;20033;-64
2022/01/02 06:23:05;;;;;;;10.75;8.52;;;;;;;9.47;73.27;96066.25;5010723;28;20099;-62
2022/01/02 06:25:30;;;;;;;9.73;8.27;;;;;;;9.35;72.43;96049.56;5010382;28;20065;-62
2022/01/02 06:27:56;;;;;;;9.82;7.90;;;;;;;9.46;72.83;96074.03;5010368;28;20034;-62
2022/01/02 06:30:22;;;;;;;10.27;7.90;;;;;;;9.45;72.39;96078.34;5010574;28;20633;-61
2022/01/02 06:32:54;;;;;;;10.73;8.13;;;;;;;9.36;72.75;96069.28;5010139;28;20503;-63
2022/01/02 06:35:27;;;;;;;10.45;7.93;;;;;;;9.38;72.70;96072.63;5010511;28;20052;-64
2022/01/02 06:37:54;;;;;;;11.65;7.57;;;;;;;9.45;72.21;96091.22;5010415;28;20021;-63
2022/01/02 06:40:21;;;;;;;12.68;8.25;;;;;;;9.47;72.50;96086.84;5009813;28;20030;-62
2022/01/02 06:42:46;;;;;;;10.95;7.90;;;;;;;9.42;71.89;96086.19;5010277;28;20022;-61
2022/01/02 06:45:12;;;;;;;10.85;8.43;;;;;;;9.43;71.64;96095.59;5010565;28;20508;-61
2022/01/02 06:47:37;;;;;;;12.00;7.88;;;;;;;9.41;72.34;96089.66;5010034;28;20033;-60
2022/01/02 06:50:04;;;;;;;12.95;8.93;;;;;;;9.35;71.87;96072.75;5010447;28;20034;-60
2022/01/02 06:52:30;;;;;;;10.98;8.25;;;;;;;9.67;70.56;96093.72;5009623;28;20030;-60
2022/01/02 06:54:55;;;;;;;11.05;7.88;;;;;;;9.84;70.99;96099.88;5009945;28;20083;-61
2022/01/02 06:57:21;;;;;;;11.32;7.20;;;;;;;9.86;70.14;96105.84;5009613;28;20042;-61
2022/01/02 06:59:47;;;;;;;10.77;8.40;;;;;;;9.86;70.37;96088.63;5010213;28;20160;-60
2022/01/02 07:02:13;;;;;;;9.68;7.93;;;;;;;9.92;69.89;96103.84;5009204;28;20441;-66
2022/01/02 07:04:38;;;;;;;9.40;7.57;;;;;;;9.59;70.13;96054.56;5009970;28;20041;-64
2022/01/02 07:07:04;;;;;;;10.60;8.25;;;;;;;9.85;70.68;96111.88;5009649;28;20120;-63
2022/01/02 07:09:31;;;;;;;10.30;8.27;;;;;;;9.79;71.10;96115.56;5009619;28;20026;-60
2022/01/02 07:11:59;;;;;;;10.70;7.88;;;;;;;9.73;70.98;96098.63;5009686;28;20061;-60
2022/01/02 07:14:27;;;;;;;11.18;7.80;;;;;;;9.80;70.09;96114.66;5007805;28;20042;-61
2022/01/02 07:16:53;;;;;;;9.70;8.25;;;;;;;9.68;71.13;96102.31;5009363;28;20080;-62
2022/01/02 07:19:19;;;;;;;11.48;9.10;;;;;;;9.54;71.26;96090.00;5009711;28;20036;-61
2022/01/02 07:21:44;;;;;;;9.65;8.07;;;;;;;9.62;71.19;96108.53;5009588;28;20038;-64
2022/01/02 07:24:10;;;;;;;10.50;7.68;;;;;;;9.83;71.78;96124.00;5009681;28;20026;-62
2022/01/02 07:26:35;;;;;;;10.80;8.43;;;;;;;10.22;73.09;96123.19;5008852;28;20433;-61
2022/01/02 07:29:01;;;;;;;10.65;8.15;;;;;;;10.48;70.90;96122.06;5009621;28;20026;-62
2022/01/02 07:31:26;;;;;;;13.30;8.63;;;;;;;10.47;68.72;96112.66;5009831;28;20038;-63
2022/01/02 07:33:52;;;;;;;12.15;8.70;;;;;;;10.47;68.38;96125.53;5007050;28;20036;-62
2022/01/02 07:36:17;;;;;;;12.13;8.85;;;;;;;10.54;68.45;96121.75;5006670;28;20068;-62
2022/01/02 07:38:42;;;;;;;10.27;8.00;;;;;;;10.56;68.13;96138.03;5005337;28;20022;-61
2022/01/02 07:41:08;;;;;;;9.55;8.07;;;;;;;10.48;68.44;96134.97;5006040;28;20117;-63
2022/01/02 07:43:33;;;;;;;9.07;7.32;;;;;;;10.26;67.93;96078.31;5005849;28;20037;-61
2022/01/02 07:45:59;;;;;;;11.35;8.68;;;;;;;10.66;67.23;96128.97;5005294;28;20033;-63
2022/01/02 07:48:24;;;;;;;12.27;8.85;;;;;;;10.37;68.00;96117.38;5005464;28;20038;-62
2022/01/02 07:50:50;;;;;;;10.27;8.88;;;;;;;10.32;68.16;96090.97;5005043;28;20545;-63
2022/01/02 07:53:15;;;;;;;9.48;7.13;;;;;;;10.33;67.29;96091.78;4992106;28;20023;-61
2022/01/02 07:55:40;;;;;;;11.77;8.00;;;;;;;10.47;66.91;96121.22;4989537;28;20085;-63
2022/01/02 07:58:06;;;;;;;13.35;9.52;;;;;;;10.61;66.70;96109.44;5001718;28;20526;-64
2022/01/02 08:00:31;;;;;;;14.82;8.98;;;;;;;10.52;66.55;96102.13;5008856;28;20046;-63
2022/01/02 08:02:57;;;;;;;10.60;8.50;;;;;;;10.62;67.13;96119.66;4995179;28;20569;-62
2022/01/02 08:05:22;;;;;;;13.43;8.82;;;;;;;10.52;66.54;96125.34;4989392;28;20034;-63
2022/01/02 08:07:48;;;;;;;12.73;8.55;;;;;;;10.59;66.88;96118.97;4991495;28;20045;-60
2022/01/02 08:10:13;;;;;;;11.50;9.10;;;;;;;10.72;66.65;96120.09;5008738;28;20409;-62
2022/01/02 08:12:39;;;;;;;9.75;8.60;;;;;;;10.65;66.53;96105.81;5008317;28;20117;-62
2022/01/02 08:15:04;;;;;;;11.55;8.93;;;;;;;10.73;66.04;96121.78;5007889;28;20026;-63
2022/01/02 08:17:30;;;;;;;9.95;8.65;;;;;;;10.61;66.15;96099.13;5008558;28;20022;-61
2022/01/02 08:19:55;;;;;;;11.07;9.15;;;;;;;10.73;66.05;96126.09;5005636;28;20034;-65
2022/01/02 08:22:21;;;;;;;10.20;8.63;;;;;;;10.81;65.77;96130.00;5008698;28;20445;-61
2022/01/02 08:24:46;;;;;;;11.55;8.15;;;;;;;12.30;60.76;96100.38;5006749;28;20041;-63
2022/01/02 08:27:12;;;;;;;12.55;8.85;;;;;;;14.73;53.40;96103.00;5006286;28;20112;-62
2022/01/02 08:29:37;;;;;;;14.25;9.18;;;;;;;15.49;51.33;96118.03;5007034;28;20121;-62
2022/01/02 08:32:03;;;;;;;11.05;8.50;;;;;;;17.58;44.72;96099.38;5007882;28;20448;-64
2022/01/02 08:34:28;;;;;;;10.68;9.00;;;;;;;16.05;48.02;96109.22;5006532;28;20078;-60
2022/01/02 08:36:54;;;;;;;10.90;7.68;;;;;;;15.44;50.47;96109.72;5007392;28;20064;-61
2022/01/02 08:39:21;;;;;;;10.13;8.02;;;;;;;15.15;49.59;96089.06;5007636;28;20022;-62
2022/01/02 08:41:46;;;;;;;8.43;7.53;;;;;;;15.13;50.64;96110.88;5007768;28;20030;-61
2022/01/02 08:44:12;;;;;;;7.90;6.28;;;;;;;15.03;49.55;96062.09;5007820;28;20029;-63
2022/01/02 08:46:38;;;;;;;10.93;8.32;;;;;;;16.91;46.01;96116.34;5007253;28;20601;-64
2022/01/02 08:49:03;;;;;;;8.73;7.53;;;;;;;16.85;44.72;96108.94;5007750;28;20407;-61
2022/01/02 08:51:29;;;;;;;8.13;7.10;;;;;;;17.63;43.14;96090.25;5006679;28;20022;-63
2022/01/02 08:53:55;;;;;;;9.73;7.38;;;;;;;16.90;44.05;96081.66;5007535;28;20405;-63
2022/01/02 08:56:21;;;;;;;9.60;7.47;;;;;;;17.75;42.92;96113.78;5007327;28;20045;-64
2022/01/02 08:58:46;;;;;;;8.68;6.63;;;;;;;17.80;42.32;96117.69;5007055;28;20461;-62
2022/01/02 09:01:12;;;;;;;9.20;7.35;;;;;;;17.93;41.08;96048.97;5007161;28;20044;-61
2022/01/02 09:03:37;;;;;;;8.82;7.18;;;;;;;21.47;35.19;96076.50;5005035;28;20592;-63
2022/01/02 09:06:03;;;;;;;8.57;7.03;;;;;;;22.74;32.16;96098.13;5007105;28;20088;-63
2022/01/02 09:08:28;;;;;;;8.27;6.70;;;;;;;22.63;31.98;96092.19;5007300;28;20041;-63
2022/01/02 09:10:54;;;;;;;7.90;6.20;;;;;;;23.44;30.41;96094.13;5007245;28;20042;-61
2022/01/02 09:13:23;;;;;;;8.43;7.25;;;;;;;23.17;30.62;96098.47;5007182;28;20058;-62
2022/01/02 09:15:49;;;;;;;6.95;6.28;;;;;;;24.69;28.11;96079.84;5006410;28;20041;-64
2022/01/02 09:18:14;;;;;;;7.55;6.20;;;;;;;23.47;30.00;96099.91;5006993;28;20029;-62
2022/01/02 09:20:41;;;;;;;7.65;6.13;;;;;;;23.66;29.38;96098.94;5005268;28;20087;-64
2022/01/02 09:23:07;;;;;;;9.52;6.30;;;;;;;24.59;27.56;96081.81;5006927;28;20036;-61
2022/01/02 09:25:32;;;;;;;8.43;6.60;;;;;;;24.54;27.67;96091.97;5007917;28;20026;-61
2022/01/02 09:27:57;;;;;;;7.85;7.05;;;;;;;24.36;27.26;96069.13;5010501;28;20061;-63
2022/01/02 09:30:23;;;;;;;6.63;5.38;;;;;;;23.54;28.90;96078.25;5008955;28;20044;-62
2022/01/02 09:32:49;;;;;;;8.32;6.63;;;;;;;22.89;29.88;96084.47;5010315;28;20034;-62
2022/01/02 09:35:14;;;;;;;8.52;6.38;;;;;;;24.18;28.08;96071.00;5010557;28;20034;-63
2022/01/02 09:37:39;;;;;;;9.32;7.53;;;;;;;23.90;28.42;96055.34;5009950;28;20083;-62
2022/01/02 09:40:06;;;;;;;7.93;6.75;;;;;;;23.71;28.76;96061.63;5010039;28;20036;-63
2022/01/02 09:42:33;;;;;;;7.22;6.30;;;;;;;24.24;27.69;96022.97;5009926;28;20065;-64
2022/01/02 09:44:59;;;;;;;10.23;6.63;;;;;;;25.49;26.75;96060.94;5010216;28;20488;-63
2022/01/02 09:47:24;;;;;;;7.55;6.28;;;;;;;25.52;26.14;96054.53;5009360;28;20126;-63
2022/01/02 09:49:50;;;;;;;7.50;5.50;;;;;;;25.91;24.98;96011.59;5009776;28;20123;-62
2022/01/02 09:52:16;;;;;;;8.13;5.80;;;;;;;25.95;25.30;96049.88;5009625;28;20025;-62
2022/01/02 09:54:42;;;;;;;8.02;6.50;;;;;;;25.79;25.25;96036.69;5009607;28;20034;-61
2022/01/02 09:57:08;;;;;;;6.72;5.80;;;;;;;26.01;25.06;96027.28;5009868;28;20065;-62
2022/01/02 09:59:33;;;;;;;5.93;5.20;;;;;;;26.25;24.84;96026.38;5008573;28;20042;-64
2022/01/02 10:01:59;;;;;;;6.53;5.38;;;;;;;26.64;24.08;96007.09;5010056;28;20466;-62
2022/01/02 10:04:36;;;;;;;9.02;5.38;;;;;;;28.09;22.56;96029.41;5009141;28;20022;-64
2022/01/02 10:07:03;;;;;;;7.45;5.85;;;;;;;28.01;22.47;96035.66;5010317;28;20033;-63
2022/01/02 10:09:37;;;;;;;6.82;4.60;;;;;;;28.19;22.06;96035.31;5009477;28;20029;-66
2022/01/02 10:12:25;;;;;;;6.88;4.10;;;;;;;27.62;22.77;96033.97;5009513;28;20030;-62
2022/01/02 10:15:10;;;;;;;5.82;3.75;;;;;;;26.25;24.82;96033.50;5008896;28;20080;-64
2022/01/02 10:18:02;;;;;;;7.32;5.40;;;;;;;27.49;23.35;96030.09;5007485;28;20100;-65
2022/01/02 10:20:41;;;;;;;6.68;5.22;;;;;;;27.63;22.42;96011.75;4983668;28;20042;-61
2022/01/02 10:23:20;;;;;;;8.82;6.38;;;;;;;27.32;23.33;96025.94;4986933;28;20509;-61
2022/01/02 10:25:57;;;;;;;7.20;4.97;;;;;;;26.37;24.36;95990.66;4986622;28;20460;-63
2022/01/02 10:28:33;;;;;;;5.03;3.50;;;;;;;25.41;24.71;95921.03;4986642;28;20045;-61
2022/01/02 10:30:59;;;;;;;6.40;5.00;;;;;;;26.78;23.65;96009.00;4986494;28;20116;-60
2022/01/02 10:33:25;;;;;;;7.80;5.45;;;;;;;26.90;23.74;96005.97;4986834;28;20030;-62
2022/01/02 10:36:02;;;;;;;6.22;3.80;;;;;;;25.68;25.16;96001.72;4986013;28;20520;-62
2022/01/02 10:38:30;;;;;;;7.82;4.38;;;;;;;25.27;24.80;95945.47;4980971;28;20430;-69
2022/01/02 10:40:56;;;;;;;8.40;5.95;;;;;;;25.31;24.69;96010.13;4983021;28;20030;-68
2022/01/02 10:43:34;;;;;;;8.88;6.05;;;;;;;25.70;24.47;95985.69;4983158;28;20108;-71
2022/01/02 10:46:06;;;;;;;7.50;5.25;;;;;;;25.98;24.25;95988.81;4977391;28;20133;-70
2022/01/02 10:48:39;;;;;;;7.35;5.40;;;;;;;26.83;22.82;95982.03;4981941;28;20106;-70
2022/01/02 10:51:16;;;;;;;13.52;8.73;;;;;;;26.41;23.18;95978.72;4982646;28;20134;-70
2022/01/02 10:53:56;;;;;;;8.90;6.25;;;;;;;26.82;23.03;95988.31;4982702;28;20072;-68
2022/01/02 10:56:23;;;;;;;8.05;5.68;;;;;;;26.70;23.07;95968.56;5000063;28;20050;-67
2022/01/02 10:58:49;;;;;;;5.25;4.00;;;;;;;26.61;22.62;95938.63;5007539;28;20092;-69
2022/01/02 11:01:15;;;;;;;5.25;3.97;;;;;;;26.32;23.36;95941.97;5006482;28;20029;-72
2022/01/02 11:03:44;;;;;;;6.32;5.07;;;;;;;28.56;21.37;95973.38;5007236;28;20032;-68
2022/01/02 11:06:13;;;;;;;5.47;4.15;;;;;;;28.70;20.96;95965.59;5007474;28;20092;-68
2022/01/02 11:08:43;;;;;;;7.05;5.03;;;;;;;29.12;20.45;95979.88;5007856;28;20030;-68
2022/01/02 11:11:09;;;;;;;;;;;;;;;28.56;20.93;95975.16;5009007;28;20531;-67
2022/01/02 11:13:35;;;;;;;6.40;4.50;;;;;;;23.91;26.32;95978.00;5007999;28;20120;-66
2022/01/02 11:16:02;;;;;;;5.90;4.57;;;;;;;26.35;23.74;95960.09;5007470;28;20053;-68
2022/01/02 11:18:32;;;;;;;8.18;5.75;;;;;;;26.66;24.75;95949.59;5007820;28;20041;-68
2022/01/02 11:20:57;;;;;;;7.38;5.75;;;;;;;27.60;23.29;95908.84;5000475;28;20030;-68
2022/01/02 11:23:45;;;;;;;7.82;5.68;;;;;;;27.52;22.63;95957.41;5008114;28;20022;-66
2022/01/02 11:26:24;;;;;;;7.25;5.30;;;;;;;27.46;22.49;95947.53;5008039;28;20083;-65
2022/01/02 11:28:51;;;;;;;6.45;5.47;;;;;;;27.65;22.20;95946.19;5008067;28;20468;-64
2022/01/02 11:31:33;;;;;;;11.43;7.95;;;;;;;28.21;21.55;95940.47;5008071;28;20107;-63
2022/01/02 11:33:59;;;;;;;6.25;5.55;;;;;;;28.69;21.35;95943.50;5008205;28;20034;-64
2022/01/02 11:36:32;;;;;;;8.32;6.03;;;;;;;28.89;20.94;95929.63;5007737;28;20022;-66
2022/01/02 11:39:11;;;;;;;5.72;3.60;;;;;;;28.47;20.72;95936.50;5007114;28;20038;-64